Time;durP1;ratioP1;P1;durP2;ratioP2;P2;SDS_P1;SDS_P2;PMS_P1;PMS_P2;Temp;Humidity;BMP_temperature;BMP_pressure;BME280_temperature;BME280_humidity;BME280_pressure;Samples;Min_cycle;Max_cycle;Signal;HPM_P1;HPM_P2
2022/09/04 00:00:10;;;;;;;2.92;2.72;;;18.20;81.90;;;;;;5103410;28;20242;-81
2022/09/04 00:03:02;;;;;;;4.00;2.30;;;18.20;85.90;;;;;;5101602;28;20254;-82
2022/09/04 00:05:34;;;;;;;3.00;2.25;;;18.10;88.50;;;;;;5100561;28;20506;-81
2022/09/04 00:08:21;;;;;;;2.78;2.38;;;18.10;91.50;;;;;;5098066;28;20201;-80
2022/09/04 00:10:56;;;;;;;3.22;2.50;;;18.10;93.70;;;;;;5097549;28;20200;-80
2022/09/04 00:13:27;;;;;;;3.42;2.22;;;18.10;95.00;;;;;;5095311;28;20196;-82
2022/09/04 00:16:01;;;;;;;2.50;2.10;;;18.00;98.10;;;;;;5095156;28;20220;-82
2022/09/04 00:18:34;;;;;;;2.80;2.60;;;18.00;99.90;;;;;;5096377;28;20200;-81
2022/09/04 00:21:08;;;;;;;2.78;2.50;;;18.00;99.90;;;;;;5097732;28;20246;-81
2022/09/04 00:23:43;;;;;;;2.63;2.38;;;18.00;99.90;;;;;;5099530;28;20542;-81
2022/09/04 00:26:19;;;;;;;3.28;2.97;;;18.00;99.90;;;;;;5113280;27;20485;-81
2022/09/04 00:28:49;;;;;;;3.15;2.53;;;17.90;99.90;;;;;;5118325;27;20286;-82
2022/09/04 00:31:25;;;;;;;3.47;2.33;;;17.90;99.90;;;;;;5118124;28;20374;-82
2022/09/04 00:34:06;;;;;;;3.10;2.72;;;17.90;99.90;;;;;;5106463;28;20200;-80
2022/09/04 00:36:35;;;;;;;2.95;2.72;;;17.80;99.90;;;;;;5107083;28;20227;-80
2022/09/04 00:39:10;;;;;;;3.20;2.90;;;17.80;99.90;;;;;;5117932;27;20692;-81
2022/09/04 00:41:50;;;;;;;3.88;2.85;;;17.80;99.90;;;;;;5118975;28;20184;-82
2022/09/04 00:44:41;;;;;;;3.10;2.90;;;17.80;99.90;;;;;;5115823;28;20202;-80
2022/09/04 00:47:42;;;;;;;3.40;3.10;;;17.80;99.90;;;;;;5110206;28;20288;-81
2022/09/04 00:50:39;;;;;;;4.50;2.97;;;17.80;99.90;;;;;;5095589;28;20210;-81
2022/09/04 00:53:30;;;;;;;2.97;2.63;;;17.70;99.90;;;;;;5099069;28;20215;-80
2022/09/04 00:56:14;;;;;;;3.75;3.00;;;17.70;99.90;;;;;;5102599;28;20205;-81
2022/09/04 00:59:03;;;;;;;4.22;2.80;;;17.70;99.90;;;;;;5093708;28;20254;-81
2022/09/04 01:01:30;;;;;;;2.97;2.75;;;17.60;99.90;;;;;;5094625;28;20204;-81
2022/09/04 01:04:26;;;;;;;3.47;2.88;;;17.60;99.90;;;;;;5096643;27;20197;-81
2022/09/04 01:07:04;;;;;;;3.00;2.80;;;17.50;99.90;;;;;;5093577;28;20526;-81
2022/09/04 01:09:56;;;;;;;3.30;2.97;;;17.50;99.90;;;;;;5094893;28;20196;-81
2022/09/04 01:12:32;;;;;;;3.03;2.72;;;17.50;99.90;;;;;;5093965;28;20199;-81
2022/09/04 01:15:14;;;;;;;3.67;2.78;;;17.50;99.90;;;;;;5095136;27;20287;-80
2022/09/04 01:18:03;;;;;;;3.35;3.00;;;17.40;99.90;;;;;;5093691;28;20224;-81
2022/09/04 01:21:06;;;;;;;5.93;3.47;;;17.40;99.90;;;;;;5116192;27;20207;-81
2022/09/04 01:23:56;;;;;;;4.05;3.67;;;17.40;99.90;;;;;;5128251;27;20199;-80
2022/09/04 01:26:32;;;;;;;4.25;3.42;;;17.40;99.90;;;;;;5067386;28;20527;-81
2022/09/04 01:29:11;;;;;;;4.03;3.60;;;17.40;99.90;;;;;;5094009;28;20584;-80
2022/09/04 01:31:46;;;;;;;3.53;3.00;;;17.30;99.90;;;;;;5093768;28;20295;-81
2022/09/04 01:34:29;;;;;;;3.28;2.88;;;17.30;99.90;;;;;;5093916;28;20200;-79
2022/09/04 01:37:01;;;;;;;4.03;3.70;;;17.30;99.90;;;;;;5113206;28;20215;-81
2022/09/04 01:39:32;;;;;;;5.15;3.75;;;17.30;99.90;;;;;;5113269;28;20200;-81
2022/09/04 01:42:06;;;;;;;4.57;3.63;;;17.30;99.90;;;;;;5097769;28;20503;-81
2022/09/04 01:44:33;;;;;;;4.18;3.83;;;17.30;99.90;;;;;;5093681;28;20292;-80
2022/09/04 01:47:11;;;;;;;3.95;3.65;;;17.20;99.90;;;;;;5092638;28;20220;-79
2022/09/04 01:49:41;;;;;;;3.90;3.60;;;17.20;99.90;;;;;;5093530;28;20562;-82
2022/09/04 01:52:36;;;;;;;3.85;3.55;;;17.20;99.90;;;;;;5130022;27;20318;-80
2022/09/04 01:55:13;;;;;;;8.07;4.68;;;17.20;99.90;;;;;;5134289;27;20223;-80
2022/09/04 01:57:54;;;;;;;4.97;4.57;;;17.20;99.90;;;;;;5134095;27;20227;-80
2022/09/04 02:00:23;;;;;;;4.40;4.00;;;17.20;99.90;;;;;;5125294;27;20204;-80
2022/09/04 02:03:01;;;;;;;4.30;3.90;;;17.20;99.90;;;;;;5092949;28;20207;-81
2022/09/04 02:05:37;;;;;;;4.95;4.55;;;17.20;99.90;;;;;;5093696;28;20261;-81
2022/09/04 02:08:16;;;;;;;4.82;4.32;;;17.20;99.90;;;;;;5092368;28;20187;-81
2022/09/04 02:10:50;;;;;;;3.88;3.58;;;17.20;99.90;;;;;;5092554;28;20207;-81
2022/09/04 02:13:22;;;;;;;4.32;3.95;;;17.10;99.90;;;;;;5130311;27;20620;-81
2022/09/04 02:16:01;;;;;;;3.83;3.53;;;17.10;99.90;;;;;;5133481;27;20184;-79
2022/09/04 02:18:42;;;;;;;4.32;3.92;;;17.00;99.90;;;;;;5133726;27;20191;-81
2022/09/04 02:21:19;;;;;;;8.52;4.70;;;17.00;99.90;;;;;;5129816;27;20576;-80
2022/09/04 02:23:52;;;;;;;4.65;4.25;;;17.00;99.90;;;;;;5112697;28;20195;-81
2022/09/04 02:26:25;;;;;;;4.38;3.97;;;16.90;99.90;;;;;;5113300;28;20196;-80
2022/09/04 02:29:01;;;;;;;4.35;3.95;;;16.90;99.90;;;;;;5103024;27;20471;-81
2022/09/04 02:31:37;;;;;;;5.25;4.10;;;16.80;99.90;;;;;;5092946;28;20306;-80
2022/09/04 02:34:09;;;;;;;4.85;4.38;;;16.80;99.90;;;;;;5093307;28;20336;-81
2022/09/04 02:36:42;;;;;;;4.95;4.55;;;16.80;99.90;;;;;;5092355;28;20212;-80
2022/09/04 02:39:19;;;;;;;5.45;4.88;;;16.80;99.90;;;;;;5093368;28;20208;-81
2022/09/04 02:41:55;;;;;;;5.53;4.72;;;16.80;99.90;;;;;;5092289;28;20313;-80
2022/09/04 02:44:37;;;;;;;5.75;5.25;;;16.80;99.90;;;;;;5091870;28;20615;-81
2022/09/04 02:47:12;;;;;;;6.63;6.03;;;16.80;99.90;;;;;;5093666;28;20192;-80
2022/09/04 02:49:49;;;;;;;5.70;5.22;;;16.70;99.90;;;;;;5091749;28;20192;-81
2022/09/04 02:52:32;;;;;;;6.28;5.78;;;16.80;99.90;;;;;;5092326;28;20208;-81
2022/09/04 02:55:11;;;;;;;7.13;6.43;;;16.70;99.90;;;;;;5092356;28;20199;-79
2022/09/04 02:57:53;;;;;;;7.38;6.68;;;16.70;99.90;;;;;;5092397;28;20251;-80
2022/09/04 03:00:26;;;;;;;6.60;6.00;;;16.70;99.90;;;;;;5092578;28;20241;-80
2022/09/04 03:03:01;;;;;;;6.88;5.82;;;16.70;99.90;;;;;;5091385;28;20215;-80
2022/09/04 03:05:32;;;;;;;7.05;6.25;;;16.70;99.90;;;;;;5092287;28;20200;-81
2022/09/04 03:08:06;;;;;;;6.93;6.32;;;16.70;99.90;;;;;;5091960;28;20195;-81
2022/09/04 03:10:39;;;;;;;6.78;6.13;;;16.70;99.90;;;;;;5098414;28;20290;-81
2022/09/04 03:13:14;;;;;;;6.28;5.60;;;16.60;99.90;;;;;;5112816;28;20502;-81
2022/09/04 03:15:47;;;;;;;8.20;6.85;;;16.60;99.90;;;;;;5112212;28;20461;-81
2022/09/04 03:18:20;;;;;;;7.03;6.43;;;16.60;99.90;;;;;;5098424;28;20205;-81
2022/09/04 03:20:53;;;;;;;6.93;6.32;;;16.60;99.90;;;;;;5094072;28;20250;-79
2022/09/04 03:23:24;;;;;;;6.45;5.93;;;16.60;99.90;;;;;;5095967;28;20203;-79
2022/09/04 03:26:14;;;;;;;7.50;6.78;;;16.60;99.90;;;;;;5095689;28;20201;-80
2022/09/04 03:28:51;;;;;;;8.25;7.55;;;16.60;99.90;;;;;;5095803;28;20231;-80
2022/09/04 03:31:30;;;;;;;8.07;7.28;;;16.60;99.90;;;;;;5095211;28;20220;-80
2022/09/04 03:34:11;;;;;;;8.60;7.80;;;16.50;99.90;;;;;;5096472;27;20195;-80
2022/09/04 03:36:44;;;;;;;7.82;7.13;;;16.50;99.90;;;;;;5095679;28;20200;-80
2022/09/04 03:39:21;;;;;;;7.72;6.93;;;16.50;99.90;;;;;;5095593;28;20495;-79
2022/09/04 03:41:59;;;;;;;8.30;7.60;;;16.50;99.90;;;;;;5095554;28;20217;-80
2022/09/04 03:44:34;;;;;;;7.47;6.78;;;16.50;99.90;;;;;;5115245;28;20231;-78
2022/09/04 03:47:13;;;;;;;7.65;6.95;;;16.50;99.90;;;;;;5115116;27;20287;-81
2022/09/04 03:49:52;;;;;;;8.35;7.50;;;16.50;99.90;;;;;;5116090;28;20203;-80
2022/09/04 03:52:31;;;;;;;7.60;6.97;;;16.40;99.90;;;;;;5114959;28;20265;-81
2022/09/04 03:55:16;;;;;;;7.53;6.93;;;16.40;99.90;;;;;;5104502;28;20231;-79
2022/09/04 03:58:03;;;;;;;8.63;7.82;;;16.40;99.90;;;;;;5100636;27;20614;-80
2022/09/04 04:00:40;;;;;;;8.10;7.30;;;16.40;99.90;;;;;;5115066;28;20606;-80
2022/09/04 04:03:28;;;;;;;9.90;9.00;;;16.40;99.90;;;;;;5095996;27;20208;-79
2022/09/04 04:06:11;;;;;;;9.52;8.73;;;16.40;99.90;;;;;;5094402;28;20564;-80
2022/09/04 04:09:10;;;;;;;9.85;9.02;;;16.40;99.90;;;;;;5095140;28;20693;-80
2022/09/04 04:12:11;;;;;;;9.30;8.40;;;16.40;99.90;;;;;;5094840;28;20196;-79
2022/09/04 04:14:52;;;;;;;8.82;7.93;;;16.40;99.90;;;;;;5081007;28;20203;-80
2022/09/04 04:17:31;;;;;;;8.90;8.05;;;16.40;99.90;;;;;;5096627;27;20209;-80
2022/09/04 04:20:14;;;;;;;9.40;8.52;;;16.40;99.90;;;;;;5135722;27;20563;-79
2022/09/04 04:22:59;;;;;;;10.95;9.95;;;16.40;99.90;;;;;;5135808;27;20191;-79
2022/09/04 04:25:48;;;;;;;10.23;9.32;;;16.30;99.90;;;;;;5135690;27;20591;-80
2022/09/04 04:28:31;;;;;;;11.23;10.00;;;16.30;99.90;;;;;;5104408;27;20508;-78
2022/09/04 04:31:05;;;;;;;10.98;9.98;;;16.30;99.90;;;;;;5094629;28;20236;-79
2022/09/04 04:33:43;;;;;;;11.03;10.00;;;16.30;99.90;;;;;;5093630;28;20192;-78
2022/09/04 04:36:23;;;;;;;12.52;11.32;;;16.30;99.90;;;;;;5094864;28;20591;-79
2022/09/04 04:39:08;;;;;;;10.13;9.23;;;16.30;99.90;;;;;;5094292;28;20220;-80
2022/09/04 04:42:04;;;;;;;10.75;9.68;;;16.30;99.90;;;;;;5098100;28;20227;-80
2022/09/04 04:47:58;;;;;;;11.63;10.63;;;16.30;99.90;;;;;;5114793;28;20175;-79
2022/09/04 04:50:35;;;;;;;11.80;10.60;;;16.30;99.90;;;;;;5114170;28;20204;-78
2022/09/04 04:53:18;;;;;;;11.40;10.40;;;16.30;99.90;;;;;;5114718;28;20196;-79
2022/09/04 04:55:52;;;;;;;12.27;11.07;;;16.30;99.90;;;;;;5112939;28;20202;-79
2022/09/04 04:58:32;;;;;;;11.77;10.57;;;16.30;99.90;;;;;;5111251;28;20239;-79
2022/09/04 05:01:08;;;;;;;10.43;9.32;;;16.30;99.90;;;;;;5093816;28;20200;-79
2022/09/04 05:03:52;;;;;;;10.87;9.87;;;16.20;99.90;;;;;;5093198;28;20188;-79
2022/09/04 05:06:26;;;;;;;12.18;11.07;;;16.20;99.90;;;;;;5094247;28;20222;-79
2022/09/04 05:09:06;;;;;;;14.20;12.83;;;16.20;99.90;;;;;;5094618;27;20200;-80
2022/09/04 05:11:43;;;;;;;12.70;11.50;;;16.20;99.90;;;;;;5092534;28;20192;-80
2022/09/04 05:14:24;;;;;;;13.60;12.40;;;16.20;99.90;;;;;;5093278;28;20276;-81
2022/09/04 05:16:59;;;;;;;12.25;11.15;;;16.20;99.90;;;;;;5093431;27;20200;-81
2022/09/04 05:19:32;;;;;;;12.60;11.30;;;16.20;99.90;;;;;;5093149;28;20185;-79
2022/09/04 05:22:08;;;;;;;12.90;11.70;;;16.20;99.90;;;;;;5093874;28;20203;-80
2022/09/04 05:24:49;;;;;;;13.15;11.85;;;16.20;99.90;;;;;;5092249;28;20269;-77
2022/09/04 05:27:42;;;;;;;13.35;12.00;;;16.20;99.90;;;;;;5093942;28;20207;-79
2022/09/04 05:30:15;;;;;;;13.80;12.40;;;16.20;99.90;;;;;;5106888;28;20200;-80
2022/09/04 05:32:53;;;;;;;13.57;12.30;;;16.20;99.90;;;;;;5113297;28;20188;-78
2022/09/04 05:35:26;;;;;;;12.73;11.63;;;16.20;99.90;;;;;;5108227;28;20663;-80
2022/09/04 05:37:59;;;;;;;11.70;10.60;;;16.20;99.90;;;;;;5092626;28;20219;-80
2022/09/04 05:40:38;;;;;;;13.65;12.35;;;16.30;99.90;;;;;;5093021;28;20188;-80
2022/09/04 05:43:20;;;;;;;13.13;11.93;;;16.30;99.90;;;;;;5109836;28;20282;-80
2022/09/04 05:46:03;;;;;;;16.15;14.55;;;16.30;99.90;;;;;;5113198;27;20194;-79
2022/09/04 05:48:40;;;;;;;15.00;13.50;;;16.30;99.90;;;;;;5113542;28;20271;-82
2022/09/04 05:51:31;;;;;;;15.18;13.73;;;16.40;99.90;;;;;;5113101;28;20196;-80
2022/09/04 05:54:24;;;;;;;14.10;12.70;;;16.40;99.90;;;;;;5097570;28;20504;-80
2022/09/04 05:57:06;;;;;;;14.35;12.85;;;16.50;99.90;;;;;;5112427;28;20207;-80
2022/09/04 06:00:02;;;;;;;16.85;15.25;;;16.50;99.90;;;;;;5091884;28;20318;-80
2022/09/04 06:03:02;;;;;;;19.83;17.30;;;16.60;99.90;;;;;;5090517;28;20279;-78
2022/09/04 06:05:43;;;;;;;19.00;17.15;;;16.60;99.90;;;;;;5087115;28;20205;-80
2022/09/04 06:08:25;;;;;;;19.25;17.50;;;16.70;99.90;;;;;;5092667;28;20200;-80
2022/09/04 06:11:03;;;;;;;20.13;18.17;;;16.80;99.90;;;;;;5093756;28;20284;-79
2022/09/04 06:13:58;;;;;;;19.42;17.52;;;16.80;99.90;;;;;;5091482;28;20584;-80
2022/09/04 06:16:55;;;;;;;18.77;16.95;;;16.90;99.90;;;;;;5092525;28;20216;-80
2022/09/04 06:19:50;;;;;;;23.23;20.85;;;16.90;99.90;;;;;;5105776;28;20814;-80
2022/09/04 06:22:48;;;;;;;25.42;22.73;;;17.00;99.90;;;;;;5112628;28;20291;-80
2022/09/04 06:25:42;;;;;;;22.55;20.27;;;17.10;99.90;;;;;;5095271;28;20204;-80
2022/09/04 06:28:29;;;;;;;23.55;21.27;;;17.10;99.90;;;;;;5111804;28;20189;-79
2022/09/04 06:31:09;;;;;;;25.30;22.75;;;17.20;99.90;;;;;;5110749;28;20280;-79
2022/09/04 06:33:48;;;;;;;27.92;25.27;;;17.30;99.90;;;;;;5112225;28;20658;-78
2022/09/04 06:36:44;;;;;;;25.77;23.13;;;17.30;99.90;;;;;;5110027;28;20583;-78
2022/09/04 06:39:42;;;;;;;23.45;21.25;;;17.40;99.90;;;;;;5111136;28;20615;-78
2022/09/04 06:42:39;;;;;;;24.92;22.35;;;17.40;99.90;;;;;;5111109;28;20187;-79
2022/09/04 06:45:19;;;;;;;22.00;19.98;;;17.50;99.90;;;;;;5096411;28;20188;-80
2022/09/04 06:48:02;;;;;;;24.65;22.17;;;17.60;99.90;;;;;;5110704;28;20626;-80
2022/09/04 06:50:34;;;;;;;24.75;21.92;;;17.70;99.90;;;;;;5112111;28;20204;-79
2022/09/04 06:53:26;;;;;;;24.02;21.67;;;17.70;99.90;;;;;;5098220;28;20224;-78
2022/09/04 06:56:06;;;;;;;28.45;25.27;;;17.80;99.90;;;;;;5093192;28;20196;-80
2022/09/04 06:58:58;;;;;;;24.92;22.38;;;17.80;99.90;;;;;;5096404;28;20334;-78
2022/09/04 07:01:39;;;;;;;24.23;21.92;;;18.00;99.90;;;;;;5095984;28;20214;-79
2022/09/04 07:04:17;;;;;;;29.27;26.45;;;18.00;99.90;;;;;;5095021;28;20810;-79
2022/09/04 07:06:55;;;;;;;25.58;22.90;;;18.10;99.90;;;;;;5094168;28;20184;-79
2022/09/04 07:09:28;;;;;;;30.17;27.33;;;18.20;99.90;;;;;;5094106;28;20232;-79
2022/09/04 07:12:20;;;;;;;28.25;25.45;;;18.30;99.90;;;;;;5102088;27;20638;-78
2022/09/04 07:15:16;;;;;;;30.40;27.30;;;18.40;99.90;;;;;;5115637;28;20196;-79
2022/09/04 07:17:56;;;;;;;30.17;27.10;;;18.50;99.90;;;;;;5112540;28;20251;-78
2022/09/04 07:20:33;;;;;;;26.05;23.60;;;18.60;99.90;;;;;;5095193;28;20469;-79
2022/09/04 07:23:22;;;;;;;28.05;25.35;;;18.70;99.90;;;;;;5098107;27;20218;-80
2022/09/04 07:25:58;;;;;;;26.65;24.00;;;18.80;99.90;;;;;;5115528;28;20278;-79
2022/09/04 07:29:01;;;;;;;33.13;29.80;;;19.00;99.90;;;;;;5115789;27;20204;-79
2022/09/04 07:31:37;;;;;;;28.48;25.67;;;19.10;99.90;;;;;;5114716;28;20216;-78
2022/09/04 07:34:11;;;;;;;28.27;25.58;;;19.30;99.90;;;;;;5114591;28;20213;-79
2022/09/04 07:36:45;;;;;;;29.63;26.67;;;19.40;99.90;;;;;;5115768;28;20702;-79
2022/09/04 07:39:19;;;;;;;30.17;27.02;;;19.50;99.90;;;;;;5114714;28;20235;-79
2022/09/04 07:41:56;;;;;;;31.83;28.58;;;19.60;99.90;;;;;;5109775;27;20200;-78
2022/09/04 07:44:29;;;;;;;28.80;25.95;;;19.70;99.90;;;;;;5114662;27;20233;-79
2022/09/04 07:47:06;;;;;;;32.00;28.75;;;19.80;99.90;;;;;;5115377;28;20305;-79
2022/09/04 07:49:39;;;;;;;31.23;27.95;;;19.90;99.90;;;;;;5128323;27;20274;-79
2022/09/04 07:52:18;;;;;;;29.70;26.70;;;20.00;99.90;;;;;;5129067;27;20199;-79
2022/09/04 07:55:03;;;;;;;29.33;26.45;;;20.20;99.90;;;;;;5115135;28;20188;-79
2022/09/04 07:57:44;;;;;;;31.80;28.67;;;20.40;99.90;;;;;;5114644;28;20203;-78
2022/09/04 08:00:15;;;;;;;27.73;25.17;;;20.60;99.90;;;;;;5093221;28;20250;-78
2022/09/04 08:03:09;;;;;;;29.73;26.80;;;20.80;99.90;;;;;;5106952;28;20200;-77
2022/09/04 08:05:44;;;;;;;26.90;24.40;;;21.00;99.90;;;;;;5100238;28;20571;-78
2022/09/04 08:08:48;;;;;;;25.83;23.30;;;21.20;99.90;;;;;;5114910;28;20734;-78
2022/09/04 08:11:44;;;;;;;29.80;27.00;;;21.40;99.90;;;;;;5107051;28;20202;-78
2022/09/04 08:14:26;;;;;;;23.77;21.48;;;21.60;99.90;;;;;;5114090;28;20200;-79
2022/09/04 08:17:28;;;;;;;21.00;19.10;;;22.00;99.90;;;;;;5114237;28;20207;-79
2022/09/04 08:20:03;;;;;;;22.50;20.15;;;22.20;99.90;;;;;;5114619;28;20211;-79
2022/09/04 08:22:42;;;;;;;24.33;21.90;;;22.50;41.50;;;;;;5114943;28;20183;-80
2022/09/04 08:25:27;;;;;;;21.63;19.60;;;22.80;1.00;;;;;;5114513;27;20199;-80
2022/09/04 08:28:24;;;;;;;22.05;19.98;;;23.10;1.00;;;;;;5114363;28;20189;-79
2022/09/04 08:31:00;;;;;;;24.40;21.30;;;23.30;1.00;;;;;;5114571;27;20259;-77
2022/09/04 08:33:50;;;;;;;23.33;21.00;;;23.60;1.00;;;;;;5113898;28;20279;-77
2022/09/04 08:36:25;;;;;;;22.90;20.73;;;23.70;1.00;;;;;;5114180;28;20635;-79
2022/09/04 08:39:10;;;;;;;20.05;18.15;;;23.80;1.00;;;;;;5114149;28;20219;-77
2022/09/04 08:42:28;;;;;;;22.33;20.02;;;24.00;1.00;;;;;;5093342;28;20189;-79
2022/09/04 08:45:32;;;;;;;20.50;18.50;;;24.20;1.00;;;;;;5093863;28;20580;-79
2022/09/04 08:48:41;;;;;;;19.80;17.90;;;24.40;1.00;;;;;;5095814;27;20207;-78
2022/09/04 08:51:36;;;;;;;17.80;15.93;;;24.60;99.90;;;;;;5114902;28;20198;-79
2022/09/04 08:54:35;;;;;;;16.70;15.20;;;24.90;1.00;;;;;;5114657;28;20196;-78
2022/09/04 08:57:29;;;;;;;18.55;16.63;;;25.20;99.90;;;;;;5113466;27;20214;-79
2022/09/04 09:00:11;;;;;;;19.75;17.65;;;25.40;1.00;;;;;;5100044;27;20240;-80
2022/09/04 09:03:14;;;;;;;14.40;13.10;;;25.50;99.10;;;;;;5094495;27;20184;-80
2022/09/04 09:06:13;;;;;;;18.65;16.98;;;25.60;99.90;;;;;;5108802;28;20239;-81
2022/09/04 09:09:23;;;;;;;17.35;15.65;;;25.80;1.00;;;;;;5080092;28;20276;-82
2022/09/04 09:12:20;;;;;;;15.05;13.57;;;25.90;1.00;;;;;;5100817;28;20214;-81
2022/09/04 09:15:30;;;;;;;16.25;14.73;;;26.10;83.00;;;;;;5100281;28;20284;-81
2022/09/04 09:18:16;;;;;;;15.50;14.10;;;26.30;1.00;;;;;;5094521;28;20197;-82
2022/09/04 09:20:52;;;;;;;15.30;13.70;;;26.40;99.90;;;;;;5096119;28;20249;-83
2022/09/04 09:23:24;;;;;;;18.20;16.60;;;26.50;99.90;;;;;;5110523;27;20192;-81
2022/09/04 09:25:55;;;;;;;15.93;14.38;;;26.50;97.00;;;;;;5114745;28;20203;-81
2022/09/04 09:29:08;;;;;;;17.90;16.30;;;26.50;99.90;;;;;;5098151;27;20207;-81
2022/09/04 09:32:11;;;;;;;12.60;11.43;;;26.60;52.20;;;;;;5093310;28;20223;-80
2022/09/04 09:35:21;;;;;;;16.83;14.95;;;26.70;99.90;;;;;;5093429;28;20358;-80
2022/09/04 09:38:18;;;;;;;19.52;17.55;;;26.80;99.90;;;;;;5055856;28;20212;-81
2022/09/04 09:41:24;;;;;;;15.80;14.38;;;26.80;15.40;;;;;;5094756;28;20193;-83
2022/09/04 09:44:17;;;;;;;15.95;14.35;;;26.90;1.00;;;;;;5055424;28;20833;-79
2022/09/04 09:47:17;;;;;;;14.57;13.13;;;27.00;1.00;;;;;;5093507;28;20499;-81
2022/09/04 09:50:08;;;;;;;15.07;13.57;;;27.20;1.00;;;;;;5063111;28;20204;-81
2022/09/04 09:53:10;;;;;;;12.63;11.32;;;27.30;1.00;;;;;;5094070;28;20232;-81
2022/09/04 09:56:08;;;;;;;16.67;14.65;;;27.40;1.00;;;;;;5101194;28;20590;-80
2022/09/04 09:59:03;;;;;;;20.08;17.80;;;27.40;1.00;;;;;;5100803;27;20585;-81
2022/09/04 10:02:00;;;;;;;18.38;16.48;;;27.30;1.00;;;;;;5105794;28;20542;-82
2022/09/04 10:04:54;;;;;;;18.20;16.50;;;27.40;1.00;;;;;;5103255;28;20520;-81
2022/09/04 10:08:02;;;;;;;21.13;18.92;;;27.50;1.00;;;;;;5103763;28;20200;-80
2022/09/04 10:11:01;;;;;;;18.00;15.38;;;27.50;1.00;;;;;;5074016;28;20279;-82
2022/09/04 10:13:51;;;;;;;12.60;11.30;;;27.40;1.00;;;;;;5056153;22;20351;-82
2022/09/04 10:17:17;;;;;;;16.20;14.68;;;27.70;1.00;;;;;;5053909;28;20447;-80
2022/09/04 10:20:16;;;;;;;14.18;12.88;;;27.80;1.00;;;;;;4971441;28;20228;-80
2022/09/04 10:23:02;;;;;;;14.68;13.15;;;27.80;1.00;;;;;;5051380;28;20496;-81
2022/09/04 10:26:09;;;;;;;9.45;8.50;;;28.00;1.00;;;;;;5053351;28;20276;-81
2022/09/04 10:29:27;;;;;;;13.68;12.27;;;28.10;1.00;;;;;;5049119;28;20209;-82
2022/09/04 10:32:20;;;;;;;11.88;10.60;;;28.20;1.00;;;;;;5053252;28;20641;-82
2022/09/04 10:35:17;;;;;;;9.10;8.20;;;28.30;1.00;;;;;;5051898;28;20202;-80
2022/09/04 10:38:06;;;;;;;10.10;9.10;;;28.30;1.00;;;;;;5052738;28;20204;-81
2022/09/04 10:40:44;;;;;;;12.43;11.32;;;28.50;1.00;;;;;;5066827;22;20700;-80
2022/09/04 10:43:32;;;;;;;8.30;7.50;;;28.60;1.00;;;;;;5091854;28;20265;-81
2022/09/04 10:46:08;;;;;;;7.07;6.45;;;28.70;99.90;;;;;;5090788;28;20283;-83
2022/09/04 10:48:54;;;;;;;12.73;11.50;;;28.80;99.90;;;;;;5093747;28;20196;-81
2022/09/04 10:51:48;;;;;;;8.02;7.22;;;28.60;99.90;;;;;;5092893;28;20212;-82
2022/09/04 10:54:53;;;;;;;16.73;15.23;;;28.80;99.90;;;;;;5091112;28;20200;-83
2022/09/04 10:57:49;;;;;;;26.80;24.13;;;28.90;99.90;;;;;;5086995;28;20228;-81
2022/09/04 11:00:18;;;;;;;32.38;29.17;;;28.80;1.00;;;;;;5063272;28;20259;-82
2022/09/04 11:03:27;;;;;;;27.77;25.05;;;28.60;1.00;;;;;;5071678;28;20225;-80
2022/09/04 11:06:42;;;;;;;27.88;25.15;;;28.50;1.00;;;;;;5055261;28;20207;-81
2022/09/04 11:09:31;;;;;;;30.30;27.38;;;28.30;1.00;;;;;;5082137;28;20195;-82
2022/09/04 11:12:27;;;;;;;31.90;28.73;;;28.30;1.00;;;;;;5079515;28;20197;-81
2022/09/04 11:15:18;;;;;;;28.77;25.73;;;28.20;1.00;;;;;;5070189;28;20573;-82
2022/09/04 11:18:27;;;;;;;31.52;28.42;;;28.00;1.00;;;;;;5079747;28;20197;-86
2022/09/04 11:21:29;;;;;;;27.50;24.70;;;27.80;1.00;;;;;;5071205;28;20210;-83
2022/09/04 11:24:52;;;;;;;28.55;25.48;;;27.50;1.00;;;;;;5070839;28;20318;-86
2022/09/04 11:28:00;;;;;;;31.42;28.08;;;27.60;1.00;;;;;;4988832;28;20216;-80
2022/09/04 11:30:38;;;;;;;27.35;24.15;;;27.60;1.00;;;;;;4990496;28;20450;-83
2022/09/04 11:33:40;;;;;;;23.52;21.08;;;27.60;1.00;;;;;;5056683;28;20494;-85
2022/09/04 11:36:57;;;;;;;21.70;19.10;;;27.60;1.00;;;;;;5054264;28;20246;-84
2022/09/04 11:39:54;;;;;;;24.77;21.70;;;27.70;1.00;;;;;;5035089;28;20316;-82
2022/09/04 11:42:40;;;;;;;24.75;22.10;;;27.90;1.00;;;;;;5073959;28;20208;-83
2022/09/04 11:45:47;;;;;;;24.98;21.58;;;27.90;1.00;;;;;;5093906;28;20612;-84
2022/09/04 11:48:43;;;;;;;22.20;20.00;;;28.10;1.00;;;;;;5090682;28;20578;-82
2022/09/04 11:51:41;;;;;;;20.42;18.27;;;28.20;1.00;;;;;;5086262;28;20200;-82
2022/09/04 11:54:37;;;;;;;20.83;18.63;;;28.00;1.00;;;;;;5093367;28;20694;-84
2022/09/04 11:57:12;;;;;;;21.05;18.88;;;27.80;1.00;;;;;;5093770;28;20530;-83
2022/09/04 12:00:12;;;;;;;24.35;21.85;;;27.70;1.00;;;;;;5092633;28;20670;-83
2022/09/04 12:03:18;;;;;;;19.95;17.77;;;27.70;1.00;;;;;;5001943;28;20211;-86
2022/09/04 12:06:06;;;;;;;26.63;23.80;;;27.70;1.00;;;;;;5092875;28;20203;-81
2022/09/04 12:09:07;;;;;;;25.00;20.13;;;27.60;1.00;;;;;;5093458;28;20204;-80
2022/09/04 12:12:11;;;;;;;17.52;15.77;;;27.60;1.00;;;;;;5092553;28;20233;-81
2022/09/04 12:15:01;;;;;;;21.23;19.08;;;27.60;1.00;;;;;;5090965;28;20487;-82
2022/09/04 12:18:07;;;;;;;18.92;16.85;;;27.60;1.00;;;;;;5092453;28;20201;-81
2022/09/04 12:20:56;;;;;;;18.83;17.02;;;27.50;1.00;;;;;;5022982;28;20221;-82
2022/09/04 12:24:18;;;;;;;19.02;17.13;;;27.50;1.00;;;;;;5092541;28;20200;-80
2022/09/04 12:27:17;;;;;;;15.02;13.45;;;27.50;1.00;;;;;;5075846;28;20243;-81
2022/09/04 12:30:05;;;;;;;17.58;15.77;;;27.70;1.00;;;;;;5094369;28;20193;-81
2022/09/04 12:33:06;;;;;;;16.75;14.93;;;27.70;1.00;;;;;;5093986;28;20195;-81
2022/09/04 12:36:13;;;;;;;14.73;13.20;;;27.50;1.00;;;;;;5082246;28;20275;-79
2022/09/04 12:39:09;;;;;;;10.82;9.77;;;27.60;1.00;;;;;;5091393;28;20211;-81
2022/09/04 12:41:44;;;;;;;14.77;13.32;;;27.70;1.00;;;;;;5100585;28;20227;-82
2022/09/04 12:44:19;;;;;;;13.02;11.68;;;27.90;1.00;;;;;;5104447;22;20238;-79
2022/09/04 12:47:00;;;;;;;13.70;11.88;;;28.00;1.00;;;;;;5084755;28;20379;-82
2022/09/04 12:49:52;;;;;;;17.20;15.40;;;28.10;1.00;;;;;;5085436;28;20193;-82
2022/09/04 12:52:35;;;;;;;14.52;13.10;;;28.30;1.00;;;;;;5068573;28;20197;-82
2022/09/04 12:55:09;;;;;;;14.25;12.85;;;28.20;1.00;;;;;;5078535;22;20235;-81
2022/09/04 12:57:54;;;;;;;21.60;16.85;;;28.10;1.00;;;;;;5070149;28;20185;-81
2022/09/04 13:00:25;;;;;;;18.73;16.73;;;27.80;1.00;;;;;;5066493;28;20236;-81
2022/09/04 13:03:04;;;;;;;10.85;9.80;;;27.50;1.00;;;;;;5067162;28;20582;-82
2022/09/04 13:05:44;;;;;;;12.57;11.38;;;27.50;1.00;;;;;;5071836;28;20208;-82
2022/09/04 13:08:23;;;;;;;12.93;11.60;;;27.40;1.00;;;;;;5053784;28;20244;-82
2022/09/04 13:11:00;;;;;;;12.00;10.77;;;27.30;1.00;;;;;;5054622;28;20186;-83
2022/09/04 13:13:38;;;;;;;11.38;10.05;;;27.30;1.00;;;;;;5054574;28;20197;-84
2022/09/04 13:16:16;;;;;;;14.50;13.00;;;27.20;1.00;;;;;;5053462;28;20269;-83
2022/09/04 13:18:59;;;;;;;13.23;11.63;;;27.20;1.00;;;;;;5068436;28;20197;-82
2022/09/04 13:21:39;;;;;;;11.55;10.38;;;27.00;1.00;;;;;;5073657;28;20612;-83
2022/09/04 13:24:24;;;;;;;10.48;9.48;;;26.70;1.00;;;;;;5073902;28;20438;-81
2022/09/04 13:27:06;;;;;;;10.27;8.70;;;26.60;1.00;;;;;;5073065;28;20496;-81
2022/09/04 13:29:44;;;;;;;9.65;8.82;;;26.50;1.00;;;;;;5073016;28;20470;-81
2022/09/04 13:32:29;;;;;;;13.95;12.55;;;26.50;1.00;;;;;;5072392;28;20316;-83
2022/09/04 13:35:10;;;;;;;15.93;14.18;;;26.50;1.00;;;;;;5072017;28;20680;-81
2022/09/04 13:37:50;;;;;;;16.95;15.25;;;26.50;1.00;;;;;;5071824;28;20232;-79
2022/09/04 13:40:30;;;;;;;17.33;15.63;;;26.50;1.00;;;;;;5072727;28;20243;-81
2022/09/04 13:43:30;;;;;;;18.25;16.55;;;26.50;1.00;;;;;;5052170;28;20203;-81
2022/09/04 13:46:02;;;;;;;13.10;11.88;;;26.40;1.00;;;;;;5043334;28;20499;-78
2022/09/04 13:48:37;;;;;;;15.75;14.15;;;26.30;1.00;;;;;;5044632;28;20277;-81
2022/09/04 13:51:09;;;;;;;15.68;14.13;;;26.30;1.00;;;;;;5043604;28;20231;-80
2022/09/04 13:53:51;;;;;;;12.35;11.25;;;26.20;1.00;;;;;;5042604;28;20309;-81
2022/09/04 13:56:28;;;;;;;12.55;11.32;;;26.10;1.00;;;;;;5047182;28;20281;-82
2022/09/04 13:59:07;;;;;;;15.93;14.23;;;26.10;1.00;;;;;;5032672;28;20230;-81
2022/09/04 14:01:44;;;;;;;11.18;10.07;;;26.10;1.00;;;;;;5033957;28;20590;-81
2022/09/04 14:04:16;;;;;;;13.60;12.20;;;26.10;5.30;;;;;;5051279;28;20296;-82
2022/09/04 14:06:44;;;;;;;13.00;11.70;;;26.10;48.70;;;;;;5038676;28;20210;-83
2022/09/04 14:09:12;;;;;;;16.95;15.45;;;26.10;96.00;;;;;;5051655;28;20217;-82
2022/09/04 14:12:22;;;;;;;14.23;12.82;;;26.20;1.00;;;;;;5049038;28;20201;-80